sensor_id;sensor_type;location;lat;lon;timestamp;P1;durP1;ratioP1;P2;durP2;ratioP2
62151;SDS011;48139;47.474;19.034;2023-02-15T04:47:48;21.25;;;11.85;;
62151;SDS011;48139;47.474;19.034;2023-02-15T04:50:52;29.10;;;14.43;;
62151;SDS011;48139;47.474;19.034;2023-02-15T04:53:54;30.92;;;16.37;;
62151;SDS011;48139;47.474;19.034;2023-02-15T04:56:58;35.42;;;18.52;;
62151;SDS011;48139;47.474;19.034;2023-02-15T05:00:00;35.83;;;18.02;;
62151;SDS011;48139;47.474;19.034;2023-02-15T05:03:06;29.12;;;17.45;;
62151;SDS011;48139;47.474;19.034;2023-02-15T05:06:08;29.27;;;16.48;;
62151;SDS011;48139;47.474;19.034;2023-02-15T05:09:11;34.30;;;18.43;;
62151;SDS011;48139;47.474;19.034;2023-02-15T05:15:17;31.90;;;17.87;;
62151;SDS011;48139;47.474;19.034;2023-02-15T05:18:20;32.03;;;18.25;;
62151;SDS011;48139;47.474;19.034;2023-02-15T05:21:24;37.25;;;17.23;;
62151;SDS011;48139;47.474;19.034;2023-02-15T05:24:27;31.52;;;19.23;;
62151;SDS011;48139;47.474;19.034;2023-02-15T05:27:48;32.92;;;17.25;;
62151;SDS011;48139;47.474;19.034;2023-02-15T05:31:11;34.65;;;19.00;;
62151;SDS011;48139;47.474;19.034;2023-02-15T05:34:14;30.92;;;18.12;;
62151;SDS011;48139;47.474;19.034;2023-02-15T05:37:16;34.47;;;19.33;;
62151;SDS011;48139;47.474;19.034;2023-02-15T05:40:19;31.87;;;18.17;;
62151;SDS011;48139;47.474;19.034;2023-02-15T05:43:22;31.90;;;17.17;;
62151;SDS011;48139;47.474;19.034;2023-02-15T05:46:25;32.10;;;18.87;;
62151;SDS011;48139;47.474;19.034;2023-02-15T05:49:28;27.80;;;16.20;;
62151;SDS011;48139;47.474;19.034;2023-02-15T05:52:31;37.95;;;20.35;;
62151;SDS011;48139;47.474;19.034;2023-02-15T05:55:33;36.22;;;19.67;;
62151;SDS011;48139;47.474;19.034;2023-02-15T05:58:38;33.47;;;17.37;;
62151;SDS011;48139;47.474;19.034;2023-02-15T06:01:41;32.58;;;17.77;;
62151;SDS011;48139;47.474;19.034;2023-02-15T06:04:44;26.58;;;16.40;;
62151;SDS011;48139;47.474;19.034;2023-02-15T06:07:46;32.33;;;17.37;;
62151;SDS011;48139;47.474;19.034;2023-02-15T06:10:49;32.53;;;18.33;;
62151;SDS011;48139;47.474;19.034;2023-02-15T06:13:52;30.08;;;16.70;;
62151;SDS011;48139;47.474;19.034;2023-02-15T06:16:55;29.97;;;16.93;;
62151;SDS011;48139;47.474;19.034;2023-02-15T06:19:57;27.05;;;17.00;;
62151;SDS011;48139;47.474;19.034;2023-02-15T06:23:00;27.37;;;14.93;;
62151;SDS011;48139;47.474;19.034;2023-02-15T06:26:02;30.60;;;15.32;;
62151;SDS011;48139;47.474;19.034;2023-02-15T06:29:06;27.75;;;14.90;;
62151;SDS011;48139;47.474;19.034;2023-02-15T06:32:08;21.10;;;12.68;;
62151;SDS011;48139;47.474;19.034;2023-02-15T06:35:12;28.92;;;15.00;;
62151;SDS011;48139;47.474;19.034;2023-02-15T06:38:15;31.42;;;15.15;;
62151;SDS011;48139;47.474;19.034;2023-02-15T06:41:17;27.17;;;15.05;;
62151;SDS011;48139;47.474;19.034;2023-02-15T06:44:20;35.85;;;15.65;;
62151;SDS011;48139;47.474;19.034;2023-02-15T06:47:23;28.27;;;14.70;;
62151;SDS011;48139;47.474;19.034;2023-02-15T06:50:26;33.72;;;16.25;;
62151;SDS011;48139;47.474;19.034;2023-02-15T06:53:29;30.10;;;15.70;;
62151;SDS011;48139;47.474;19.034;2023-02-15T06:56:31;24.75;;;14.57;;
62151;SDS011;48139;47.474;19.034;2023-02-15T06:59:34;34.88;;;14.35;;
62151;SDS011;48139;47.474;19.034;2023-02-15T07:02:37;24.27;;;13.35;;
62151;SDS011;48139;47.474;19.034;2023-02-15T07:05:40;22.10;;;13.40;;
62151;SDS011;48139;47.474;19.034;2023-02-15T07:08:43;28.80;;;14.93;;
62151;SDS011;48139;47.474;19.034;2023-02-15T07:11:46;26.45;;;13.75;;
62151;SDS011;48139;47.474;19.034;2023-02-15T07:15:10;25.73;;;13.80;;
62151;SDS011;48139;47.474;19.034;2023-02-15T07:18:15;27.65;;;15.00;;
62151;SDS011;48139;47.474;19.034;2023-02-15T07:21:18;29.87;;;16.87;;
62151;SDS011;48139;47.474;19.034;2023-02-15T07:24:21;27.50;;;15.07;;
62151;SDS011;48139;47.474;19.034;2023-02-15T07:27:24;30.92;;;15.20;;
62151;SDS011;48139;47.474;19.034;2023-02-15T07:30:27;29.37;;;16.55;;
62151;SDS011;48139;47.474;19.034;2023-02-15T07:33:31;25.62;;;15.88;;
62151;SDS011;48139;47.474;19.034;2023-02-15T07:36:34;31.83;;;16.05;;
62151;SDS011;48139;47.474;19.034;2023-02-15T07:39:37;35.50;;;20.25;;
62151;SDS011;48139;47.474;19.034;2023-02-15T07:42:40;49.63;;;21.33;;
62151;SDS011;48139;47.474;19.034;2023-02-15T07:45:42;30.75;;;17.12;;
62151;SDS011;48139;47.474;19.034;2023-02-15T07:48:45;36.85;;;18.52;;
62151;SDS011;48139;47.474;19.034;2023-02-15T07:51:48;32.17;;;16.23;;
62151;SDS011;48139;47.474;19.034;2023-02-15T07:54:51;32.50;;;17.53;;
62151;SDS011;48139;47.474;19.034;2023-02-15T07:57:54;35.63;;;18.73;;
62151;SDS011;48139;47.474;19.034;2023-02-15T08:00:56;33.93;;;18.47;;
62151;SDS011;48139;47.474;19.034;2023-02-15T08:03:59;29.12;;;16.92;;
62151;SDS011;48139;47.474;19.034;2023-02-15T08:07:02;32.85;;;16.37;;
62151;SDS011;48139;47.474;19.034;2023-02-15T08:10:05;31.73;;;17.20;;
62151;SDS011;48139;47.474;19.034;2023-02-15T08:13:08;32.38;;;19.00;;
62151;SDS011;48139;47.474;19.034;2023-02-15T08:16:11;28.95;;;17.25;;
62151;SDS011;48139;47.474;19.034;2023-02-15T08:19:16;30.90;;;18.58;;
62151;SDS011;48139;47.474;19.034;2023-02-15T08:22:20;34.38;;;19.12;;
62151;SDS011;48139;47.474;19.034;2023-02-15T08:25:23;36.35;;;18.80;;
62151;SDS011;48139;47.474;19.034;2023-02-15T08:28:26;33.00;;;17.90;;
62151;SDS011;48139;47.474;19.034;2023-02-15T08:31:28;34.97;;;20.37;;
62151;SDS011;48139;47.474;19.034;2023-02-15T08:34:33;33.85;;;19.80;;
62151;SDS011;48139;47.474;19.034;2023-02-15T08:37:37;30.37;;;17.90;;
62151;SDS011;48139;47.474;19.034;2023-02-15T08:40:40;36.37;;;21.73;;
62151;SDS011;48139;47.474;19.034;2023-02-15T08:43:43;32.13;;;19.15;;
62151;SDS011;48139;47.474;19.034;2023-02-15T08:46:46;30.80;;;20.08;;
62151;SDS011;48139;47.474;19.034;2023-02-15T08:49:50;36.45;;;20.30;;
62151;SDS011;48139;47.474;19.034;2023-02-15T08:52:53;37.78;;;20.55;;
62151;SDS011;48139;47.474;19.034;2023-02-15T08:55:56;32.05;;;19.42;;
62151;SDS011;48139;47.474;19.034;2023-02-15T08:59:00;38.25;;;20.88;;
62151;SDS011;48139;47.474;19.034;2023-02-15T09:02:03;34.47;;;20.98;;
62151;SDS011;48139;47.474;19.034;2023-02-15T09:05:06;31.45;;;19.30;;
62151;SDS011;48139;47.474;19.034;2023-02-15T09:08:09;38.20;;;22.00;;
62151;SDS011;48139;47.474;19.034;2023-02-15T09:11:13;46.73;;;20.13;;
62151;SDS011;48139;47.474;19.034;2023-02-15T09:14:24;37.70;;;20.65;;
62151;SDS011;48139;47.474;19.034;2023-02-15T09:17:28;35.17;;;21.70;;
62151;SDS011;48139;47.474;19.034;2023-02-15T09:20:31;38.73;;;21.87;;
62151;SDS011;48139;47.474;19.034;2023-02-15T09:23:37;33.83;;;19.10;;
62151;SDS011;48139;47.474;19.034;2023-02-15T09:26:41;44.55;;;24.67;;
62151;SDS011;48139;47.474;19.034;2023-02-15T09:29:48;36.58;;;21.80;;
62151;SDS011;48139;47.474;19.034;2023-02-15T09:32:50;34.20;;;22.40;;
62151;SDS011;48139;47.474;19.034;2023-02-15T09:35:53;40.97;;;22.90;;
62151;SDS011;48139;47.474;19.034;2023-02-15T09:38:57;38.57;;;21.50;;
62151;SDS011;48139;47.474;19.034;2023-02-15T09:48:38;41.33;;;21.60;;
62151;SDS011;48139;47.474;19.034;2023-02-15T10:12:49;38.70;;;24.92;;
62151;SDS011;48139;47.474;19.034;2023-02-15T10:20:15;40.28;;;23.35;;
62151;SDS011;48139;47.474;19.034;2023-02-15T10:26:36;42.13;;;23.83;;
62151;SDS011;48139;47.474;19.034;2023-02-15T10:29:55;46.10;;;22.48;;
62151;SDS011;48139;47.474;19.034;2023-02-15T10:33:22;41.88;;;24.87;;
62151;SDS011;48139;47.474;19.034;2023-02-15T10:50:40;42.00;;;24.70;;
62151;SDS011;48139;47.474;19.034;2023-02-15T10:53:57;41.60;;;24.05;;
62151;SDS011;48139;47.474;19.034;2023-02-15T11:07:11;39.53;;;23.60;;
62151;SDS011;48139;47.474;19.034;2023-02-15T11:10:24;40.05;;;24.12;;
62151;SDS011;48139;47.474;19.034;2023-02-15T11:13:29;43.20;;;25.40;;
62151;SDS011;48139;47.474;19.034;2023-02-15T11:16:37;43.65;;;25.50;;
62151;SDS011;48139;47.474;19.034;2023-02-15T11:19:55;45.25;;;25.62;;
62151;SDS011;48139;47.474;19.034;2023-02-15T11:22:59;43.13;;;26.35;;
62151;SDS011;48139;47.474;19.034;2023-02-15T11:26:04;55.90;;;26.20;;
62151;SDS011;48139;47.474;19.034;2023-02-15T11:32:40;42.22;;;22.25;;
62151;SDS011;48139;47.474;19.034;2023-02-15T11:36:31;43.58;;;23.87;;
62151;SDS011;48139;47.474;19.034;2023-02-15T11:39:22;41.17;;;22.85;;
62151;SDS011;48139;47.474;19.034;2023-02-15T11:42:30;34.40;;;21.48;;
62151;SDS011;48139;47.474;19.034;2023-02-15T11:45:35;32.22;;;21.55;;
62151;SDS011;48139;47.474;19.034;2023-02-15T11:48:37;42.30;;;22.20;;
62151;SDS011;48139;47.474;19.034;2023-02-15T11:51:41;31.62;;;20.58;;
62151;SDS011;48139;47.474;19.034;2023-02-15T11:54:45;39.57;;;23.07;;
62151;SDS011;48139;47.474;19.034;2023-02-15T12:01:35;33.95;;;21.45;;
62151;SDS011;48139;47.474;19.034;2023-02-15T12:04:41;34.83;;;21.62;;
62151;SDS011;48139;47.474;19.034;2023-02-15T12:07:48;37.22;;;20.65;;
62151;SDS011;48139;47.474;19.034;2023-02-15T12:11:04;45.78;;;23.85;;
62151;SDS011;48139;47.474;19.034;2023-02-15T12:14:14;37.97;;;21.52;;
62151;SDS011;48139;47.474;19.034;2023-02-15T12:20:51;37.13;;;20.83;;
62151;SDS011;48139;47.474;19.034;2023-02-15T12:23:55;32.47;;;20.80;;
62151;SDS011;48139;47.474;19.034;2023-02-15T12:27:05;34.65;;;19.23;;
62151;SDS011;48139;47.474;19.034;2023-02-15T12:30:22;38.33;;;18.70;;
62151;SDS011;48139;47.474;19.034;2023-02-15T12:33:31;36.83;;;22.17;;
62151;SDS011;48139;47.474;19.034;2023-02-15T12:36:42;36.75;;;18.48;;
62151;SDS011;48139;47.474;19.034;2023-02-15T12:39:56;36.67;;;20.15;;
62151;SDS011;48139;47.474;19.034;2023-02-15T12:43:01;34.55;;;18.90;;
62151;SDS011;48139;47.474;19.034;2023-02-15T12:49:24;32.90;;;18.25;;
62151;SDS011;48139;47.474;19.034;2023-02-15T12:52:27;32.25;;;17.25;;
62151;SDS011;48139;47.474;19.034;2023-02-15T12:55:30;34.00;;;19.47;;
62151;SDS011;48139;47.474;19.034;2023-02-15T12:58:34;31.62;;;16.95;;
62151;SDS011;48139;47.474;19.034;2023-02-15T13:01:38;31.35;;;18.02;;
62151;SDS011;48139;47.474;19.034;2023-02-15T13:04:46;32.15;;;17.40;;
62151;SDS011;48139;47.474;19.034;2023-02-15T13:07:53;30.55;;;18.02;;
62151;SDS011;48139;47.474;19.034;2023-02-15T13:11:00;30.60;;;15.43;;
62151;SDS011;48139;47.474;19.034;2023-02-15T13:14:16;26.87;;;15.27;;
62151;SDS011;48139;47.474;19.034;2023-02-15T13:17:25;27.23;;;14.38;;
62151;SDS011;48139;47.474;19.034;2023-02-15T13:20:34;32.63;;;18.73;;
62151;SDS011;48139;47.474;19.034;2023-02-15T13:23:39;31.33;;;16.98;;
62151;SDS011;48139;47.474;19.034;2023-02-15T13:26:48;29.67;;;16.30;;
62151;SDS011;48139;47.474;19.034;2023-02-15T13:29:52;26.77;;;14.95;;
62151;SDS011;48139;47.474;19.034;2023-02-15T13:33:04;28.35;;;17.67;;
62151;SDS011;48139;47.474;19.034;2023-02-15T13:36:18;30.77;;;16.60;;
62151;SDS011;48139;47.474;19.034;2023-02-15T13:43:28;30.45;;;16.95;;
62151;SDS011;48139;47.474;19.034;2023-02-15T13:49:55;29.73;;;15.48;;
62151;SDS011;48139;47.474;19.034;2023-02-15T13:56:30;28.12;;;15.60;;
62151;SDS011;48139;47.474;19.034;2023-02-15T14:06:39;25.95;;;13.48;;
62151;SDS011;48139;47.474;19.034;2023-02-15T14:30:48;30.15;;;17.62;;
62151;SDS011;48139;47.474;19.034;2023-02-15T14:33:53;25.90;;;14.65;;
62151;SDS011;48139;47.474;19.034;2023-02-15T14:36:58;29.95;;;16.62;;
62151;SDS011;48139;47.474;19.034;2023-02-15T14:40:36;27.75;;;16.67;;
62151;SDS011;48139;47.474;19.034;2023-02-15T14:44:13;30.33;;;16.98;;
62151;SDS011;48139;47.474;19.034;2023-02-15T14:47:26;33.60;;;16.90;;
62151;SDS011;48139;47.474;19.034;2023-02-15T14:53:39;31.33;;;16.58;;
62151;SDS011;48139;47.474;19.034;2023-02-15T14:56:44;35.47;;;16.27;;
62151;SDS011;48139;47.474;19.034;2023-02-15T14:59:55;29.75;;;16.67;;
62151;SDS011;48139;47.474;19.034;2023-02-15T15:02:59;33.03;;;16.27;;
62151;SDS011;48139;47.474;19.034;2023-02-15T15:06:03;26.02;;;14.80;;
62151;SDS011;48139;47.474;19.034;2023-02-15T15:09:12;32.97;;;16.12;;
62151;SDS011;48139;47.474;19.034;2023-02-15T15:18:44;35.08;;;17.90;;
62151;SDS011;48139;47.474;19.034;2023-02-15T15:24:53;40.70;;;17.33;;
62151;SDS011;48139;47.474;19.034;2023-02-15T15:27:56;31.33;;;16.83;;
62151;SDS011;48139;47.474;19.034;2023-02-15T15:31:10;35.08;;;18.67;;
62151;SDS011;48139;47.474;19.034;2023-02-15T15:34:33;38.05;;;18.87;;
62151;SDS011;48139;47.474;19.034;2023-02-15T15:51:17;33.15;;;18.33;;
62151;SDS011;48139;47.474;19.034;2023-02-15T15:54:23;34.92;;;18.55;;
62151;SDS011;48139;47.474;19.034;2023-02-15T15:57:31;34.30;;;17.58;;
62151;SDS011;48139;47.474;19.034;2023-02-15T16:03:52;25.12;;;16.02;;
62151;SDS011;48139;47.474;19.034;2023-02-15T16:06:57;29.25;;;17.27;;
62151;SDS011;48139;47.474;19.034;2023-02-15T16:10:02;32.65;;;16.80;;
62151;SDS011;48139;47.474;19.034;2023-02-15T16:13:21;32.03;;;18.02;;
62151;SDS011;48139;47.474;19.034;2023-02-15T16:16:27;39.17;;;18.92;;
62151;SDS011;48139;47.474;19.034;2023-02-15T16:19:36;35.47;;;18.35;;
62151;SDS011;48139;47.474;19.034;2023-02-15T16:22:41;30.10;;;17.77;;
62151;SDS011;48139;47.474;19.034;2023-02-15T16:25:50;37.40;;;17.67;;
62151;SDS011;48139;47.474;19.034;2023-02-15T16:29:17;32.40;;;19.33;;
62151;SDS011;48139;47.474;19.034;2023-02-15T16:32:28;36.80;;;18.85;;
62151;SDS011;48139;47.474;19.034;2023-02-15T16:35:30;30.33;;;17.87;;
62151;SDS011;48139;47.474;19.034;2023-02-15T16:41:45;38.25;;;19.95;;
62151;SDS011;48139;47.474;19.034;2023-02-15T16:48:00;36.38;;;19.17;;
